sensor_id;sensor_type;location;lat;lon;timestamp;temperature;humidity
14154;DHT22;7157;53.144;7.570;2022-10-23T00:07:15;12.11;94.30
14154;DHT22;7157;53.144;7.570;2022-10-23T00:17:18;12.14;94.44
14154;DHT22;7157;53.144;7.570;2022-10-23T00:27:22;12.16;94.11
14154;DHT22;7157;53.144;7.570;2022-10-23T00:37:25;12.15;94.14
14154;DHT22;7157;53.144;7.570;2022-10-23T00:47:29;12.07;94.45
14154;DHT22;7157;53.144;7.570;2022-10-23T00:57:32;12.12;94.72
14154;DHT22;7157;53.144;7.570;2022-10-23T01:07:44;12.10;94.55
14154;DHT22;7157;53.144;7.570;2022-10-23T01:17:52;11.92;95.17
14154;DHT22;7157;53.144;7.570;2022-10-23T01:28:00;11.88;95.58
14154;DHT22;7157;53.144;7.570;2022-10-23T01:38:08;11.90;95.02
14154;DHT22;7157;53.144;7.570;2022-10-23T01:48:18;11.84;95.23
14154;DHT22;7157;53.144;7.570;2022-10-23T01:58:24;11.77;94.92
14154;DHT22;7157;53.144;7.570;2022-10-23T02:08:29;11.69;94.38
14154;DHT22;7157;53.144;7.570;2022-10-23T02:18:37;11.53;94.12
14154;DHT22;7157;53.144;7.570;2022-10-23T02:28:47;11.40;93.91
14154;DHT22;7157;53.144;7.570;2022-10-23T02:38:50;11.45;93.84
14154;DHT22;7157;53.144;7.570;2022-10-23T02:48:59;11.42;93.56
14154;DHT22;7157;53.144;7.570;2022-10-23T02:59:08;11.48;93.62
14154;DHT22;7157;53.144;7.570;2022-10-23T03:09:14;11.52;93.53
14154;DHT22;7157;53.144;7.570;2022-10-23T03:19:16;11.52;93.73
14154;DHT22;7157;53.144;7.570;2022-10-23T03:29:21;11.46;93.43
14154;DHT22;7157;53.144;7.570;2022-10-23T03:39:23;11.43;93.42
14154;DHT22;7157;53.144;7.570;2022-10-23T03:49:28;11.34;93.27
14154;DHT22;7157;53.144;7.570;2022-10-23T03:59:30;11.34;93.15
14154;DHT22;7157;53.144;7.570;2022-10-23T04:09:34;11.19;93.04
14154;DHT22;7157;53.144;7.570;2022-10-23T04:19:37;11.17;93.03
14154;DHT22;7157;53.144;7.570;2022-10-23T04:29:41;11.05;92.95
14154;DHT22;7157;53.144;7.570;2022-10-23T04:39:44;11.10;93.44
14154;DHT22;7157;53.144;7.570;2022-10-23T04:49:48;11.12;93.05
14154;DHT22;7157;53.144;7.570;2022-10-23T04:59:50;11.04;93.15
14154;DHT22;7157;53.144;7.570;2022-10-23T05:09:54;11.02;92.85
14154;DHT22;7157;53.144;7.570;2022-10-23T05:19:58;10.89;92.63
14154;DHT22;7157;53.144;7.570;2022-10-23T05:30:04;10.83;92.59
14154;DHT22;7157;53.144;7.570;2022-10-23T05:40:09;10.83;92.41
14154;DHT22;7157;53.144;7.570;2022-10-23T05:50:13;10.90;92.60
14154;DHT22;7157;53.144;7.570;2022-10-23T06:00:16;10.86;92.60
14154;DHT22;7157;53.144;7.570;2022-10-23T06:10:20;10.93;92.46
14154;DHT22;7157;53.144;7.570;2022-10-23T06:20:22;11.03;92.51
14154;DHT22;7157;53.144;7.570;2022-10-23T06:30:30;11.05;92.37
14154;DHT22;7157;53.144;7.570;2022-10-23T06:40:33;11.25;92.69
14154;DHT22;7157;53.144;7.570;2022-10-23T06:50:37;11.42;92.96
14154;DHT22;7157;53.144;7.570;2022-10-23T07:00:40;11.62;93.32
14154;DHT22;7157;53.144;7.570;2022-10-23T07:10:44;11.88;93.70
14154;DHT22;7157;53.144;7.570;2022-10-23T07:20:48;12.16;93.75
14154;DHT22;7157;53.144;7.570;2022-10-23T07:30:56;12.33;94.04
14154;DHT22;7157;53.144;7.570;2022-10-23T07:40:59;12.56;94.14
14154;DHT22;7157;53.144;7.570;2022-10-23T07:51:05;12.76;94.27
14154;DHT22;7157;53.144;7.570;2022-10-23T08:01:15;13.02;94.08
14154;DHT22;7157;53.144;7.570;2022-10-23T08:11:22;13.18;94.16
14154;DHT22;7157;53.144;7.570;2022-10-23T08:21:27;13.38;94.19
14154;DHT22;7157;53.144;7.570;2022-10-23T08:31:31;13.58;94.08
14154;DHT22;7157;53.144;7.570;2022-10-23T08:41:36;13.76;94.04
14154;DHT22;7157;53.144;7.570;2022-10-23T08:51:43;14.00;93.59
14154;DHT22;7157;53.144;7.570;2022-10-23T09:01:48;14.24;93.27
14154;DHT22;7157;53.144;7.570;2022-10-23T09:12:00;14.34;93.23
14154;DHT22;7157;53.144;7.570;2022-10-23T09:22:04;14.78;92.77
14154;DHT22;7157;53.144;7.570;2022-10-23T09:32:09;15.07;92.48
14154;DHT22;7157;53.144;7.570;2022-10-23T09:42:21;15.39;91.77
14154;DHT22;7157;53.144;7.570;2022-10-23T09:52:29;15.72;91.35
14154;DHT22;7157;53.144;7.570;2022-10-23T10:02:35;16.01;91.01
14154;DHT22;7157;53.144;7.570;2022-10-23T10:12:46;16.35;90.16
14154;DHT22;7157;53.144;7.570;2022-10-23T10:22:54;16.47;89.50
14154;DHT22;7157;53.144;7.570;2022-10-23T10:33:04;16.74;88.87
14154;DHT22;7157;53.144;7.570;2022-10-23T10:43:19;17.31;87.30
14154;DHT22;7157;53.144;7.570;2022-10-23T10:53:33;17.94;85.10
14154;DHT22;7157;53.144;7.570;2022-10-23T11:03:44;18.44;83.71
14154;DHT22;7157;53.144;7.570;2022-10-23T11:13:51;20.04;79.21
14154;DHT22;7157;53.144;7.570;2022-10-23T11:24:14;19.15;79.55
14154;DHT22;7157;53.144;7.570;2022-10-23T11:34:42;18.70;80.00
14154;DHT22;7157;53.144;7.570;2022-10-23T11:44:49;18.53;80.81
14154;DHT22;7157;53.144;7.570;2022-10-23T11:55:01;18.64;80.09
14154;DHT22;7157;53.144;7.570;2022-10-23T12:05:06;18.20;80.89
14154;DHT22;7157;53.144;7.570;2022-10-23T12:15:20;17.87;81.93
14154;DHT22;7157;53.144;7.570;2022-10-23T12:25:30;18.11;81.97
14154;DHT22;7157;53.144;7.570;2022-10-23T12:46:33;17.91;82.73
14154;DHT22;7157;53.144;7.570;2022-10-23T12:56:37;17.97;83.35
14154;DHT22;7157;53.144;7.570;2022-10-23T13:06:42;18.05;82.94
14154;DHT22;7157;53.144;7.570;2022-10-23T13:16:45;18.11;83.32
14154;DHT22;7157;53.144;7.570;2022-10-23T13:26:49;18.22;82.99
14154;DHT22;7157;53.144;7.570;2022-10-23T13:36:58;18.17;83.01
14154;DHT22;7157;53.144;7.570;2022-10-23T13:47:02;18.03;83.42
14154;DHT22;7157;53.144;7.570;2022-10-23T13:57:08;18.00;83.63
14154;DHT22;7157;53.144;7.570;2022-10-23T14:07:14;18.10;83.36
14154;DHT22;7157;53.144;7.570;2022-10-23T14:17:17;17.98;83.78
14154;DHT22;7157;53.144;7.570;2022-10-23T14:27:20;17.78;83.96
14154;DHT22;7157;53.144;7.570;2022-10-23T14:37:23;17.73;83.91
14154;DHT22;7157;53.144;7.570;2022-10-23T14:47:27;17.70;84.14
14154;DHT22;7157;53.144;7.570;2022-10-23T14:57:30;17.64;84.41
14154;DHT22;7157;53.144;7.570;2022-10-23T15:07:34;17.44;84.79
14154;DHT22;7157;53.144;7.570;2022-10-23T15:17:36;17.24;85.45
14154;DHT22;7157;53.144;7.570;2022-10-23T15:27:40;17.25;85.49
14154;DHT22;7157;53.144;7.570;2022-10-23T15:37:43;17.14;85.92
14154;DHT22;7157;53.144;7.570;2022-10-23T15:47:48;17.00;86.35
14154;DHT22;7157;53.144;7.570;2022-10-23T15:57:51;16.93;86.30
14154;DHT22;7157;53.144;7.570;2022-10-23T16:07:55;16.77;86.91
14154;DHT22;7157;53.144;7.570;2022-10-23T16:17:58;16.78;86.56
14154;DHT22;7157;53.144;7.570;2022-10-23T16:28:02;16.77;86.29
14154;DHT22;7157;53.144;7.570;2022-10-23T16:38:05;16.72;86.35
14154;DHT22;7157;53.144;7.570;2022-10-23T16:48:09;16.65;86.42
14154;DHT22;7157;53.144;7.570;2022-10-23T16:58:12;16.63;86.29
14154;DHT22;7157;53.144;7.570;2022-10-23T17:08:16;16.59;86.26
14154;DHT22;7157;53.144;7.570;2022-10-23T17:18:19;16.50;86.32
14154;DHT22;7157;53.144;7.570;2022-10-23T17:28:23;16.47;86.35
14154;DHT22;7157;53.144;7.570;2022-10-23T17:38:26;16.30;86.70
14154;DHT22;7157;53.144;7.570;2022-10-23T17:48:30;16.26;86.75
14154;DHT22;7157;53.144;7.570;2022-10-23T17:58:34;16.28;86.70
14154;DHT22;7157;53.144;7.570;2022-10-23T18:08:39;16.40;86.40
14154;DHT22;7157;53.144;7.570;2022-10-23T18:18:43;16.41;86.12
14154;DHT22;7157;53.144;7.570;2022-10-23T18:28:51;16.58;85.45
14154;DHT22;7157;53.144;7.570;2022-10-23T18:38:55;16.61;85.14
14154;DHT22;7157;53.144;7.570;2022-10-23T18:48:59;16.58;85.34
14154;DHT22;7157;53.144;7.570;2022-10-23T18:59:04;16.52;85.66
14154;DHT22;7157;53.144;7.570;2022-10-23T19:09:11;16.51;85.96
14154;DHT22;7157;53.144;7.570;2022-10-23T19:19:16;16.51;86.12
14154;DHT22;7157;53.144;7.570;2022-10-23T19:29:22;16.57;85.99
14154;DHT22;7157;53.144;7.570;2022-10-23T19:39:27;16.60;85.91
14154;DHT22;7157;53.144;7.570;2022-10-23T19:49:31;16.57;86.01
14154;DHT22;7157;53.144;7.570;2022-10-23T19:59:34;16.43;86.54
14154;DHT22;7157;53.144;7.570;2022-10-23T20:09:38;16.39;86.74
14154;DHT22;7157;53.144;7.570;2022-10-23T20:19:40;16.37;86.83
14154;DHT22;7157;53.144;7.570;2022-10-23T20:29:46;16.40;86.97
14154;DHT22;7157;53.144;7.570;2022-10-23T20:39:49;16.35;87.23
14154;DHT22;7157;53.144;7.570;2022-10-23T20:49:53;16.56;86.69
14154;DHT22;7157;53.144;7.570;2022-10-23T20:59:56;16.69;86.38
14154;DHT22;7157;53.144;7.570;2022-10-23T21:10:01;16.69;86.36
14154;DHT22;7157;53.144;7.570;2022-10-23T21:20:04;16.81;85.91
14154;DHT22;7157;53.144;7.570;2022-10-23T21:30:10;16.87;85.61
14154;DHT22;7157;53.144;7.570;2022-10-23T21:40:12;16.95;85.42
14154;DHT22;7157;53.144;7.570;2022-10-23T21:50:17;17.18;84.40
14154;DHT22;7157;53.144;7.570;2022-10-23T22:00:20;17.21;84.16
14154;DHT22;7157;53.144;7.570;2022-10-23T22:10:25;17.11;84.48
14154;DHT22;7157;53.144;7.570;2022-10-23T22:20:28;17.17;84.32
14154;DHT22;7157;53.144;7.570;2022-10-23T22:30:35;17.11;84.53
14154;DHT22;7157;53.144;7.570;2022-10-23T22:40:38;16.94;85.42
14154;DHT22;7157;53.144;7.570;2022-10-23T22:50:48;16.85;85.74
14154;DHT22;7157;53.144;7.570;2022-10-23T23:00:51;16.87;85.65
14154;DHT22;7157;53.144;7.570;2022-10-23T23:10:56;16.91;85.15
14154;DHT22;7157;53.144;7.570;2022-10-23T23:20:59;16.80;85.40
14154;DHT22;7157;53.144;7.570;2022-10-23T23:31:06;16.92;84.10
14154;DHT22;7157;53.144;7.570;2022-10-23T23:41:11;17.00;83.71
14154;DHT22;7157;53.144;7.570;2022-10-23T23:51:17;16.91;83.46
